Time;durP1;ratioP1;P1;durP2;ratioP2;P2;SDS_P1;SDS_P2;PMS_P1;PMS_P2;Temp;Humidity;BMP_temperature;BMP_pressure;BME280_temperature;BME280_humidity;BME280_pressure;Samples;Min_cycle;Max_cycle;Signal;HPM_P1;HPM_P2
2022/12/24 00:00:01;;;;;;;47.15;6.03;;;;;;;13.33;100.00;100433.94;5117043;28;20032;-56
2022/12/24 00:02:26;;;;;;;46.43;7.30;;;;;;;13.53;100.00;100438.31;5124242;28;20028;-58
2022/12/24 00:04:52;;;;;;;41.87;6.43;;;;;;;13.46;100.00;100433.81;5123849;28;20318;-57
2022/12/24 00:07:18;;;;;;;38.10;5.72;;;;;;;13.34;100.00;100452.50;5129084;28;20039;-54
2022/12/24 00:09:43;;;;;;;62.03;7.17;;;;;;;13.38;100.00;100444.00;5123129;28;20032;-57
2022/12/24 00:12:09;;;;;;;52.05;6.82;;;;;;;13.38;100.00;100442.16;5119679;28;20272;-55
2022/12/24 00:14:34;;;;;;;44.80;7.40;;;;;;;13.17;100.00;100456.84;5120380;28;20035;-56
2022/12/24 00:16:59;;;;;;;50.60;6.57;;;;;;;13.13;100.00;100479.78;5119545;28;20047;-56
2022/12/24 00:19:25;;;;;;;57.23;7.13;;;;;;;13.18;100.00;100455.78;5123176;28;20024;-52
2022/12/24 00:21:50;;;;;;;38.88;5.90;;;;;;;13.41;100.00;100460.50;5123841;28;20044;-54
2022/12/24 00:24:16;;;;;;;43.00;5.90;;;;;;;13.53;100.00;100473.22;5124374;28;20028;-53
2022/12/24 00:26:42;;;;;;;57.83;6.05;;;;;;;13.38;100.00;100469.00;5115673;28;20036;-55
2022/12/24 00:29:07;;;;;;;51.83;6.73;;;;;;;13.33;100.00;100476.91;5121739;28;20047;-56
2022/12/24 00:31:33;;;;;;;48.13;6.03;;;;;;;13.20;100.00;100488.63;5123128;28;20104;-57
2022/12/24 00:33:59;;;;;;;43.23;5.60;;;;;;;13.11;100.00;100489.94;5120133;28;20044;-53
2022/12/24 00:36:24;;;;;;;44.23;6.93;;;;;;;13.38;100.00;100489.66;5118853;28;20035;-54
2022/12/24 00:38:50;;;;;;;42.50;6.70;;;;;;;13.62;100.00;100496.88;5120576;28;20046;-54
2022/12/24 00:41:25;;;;;;;43.47;5.93;;;;;;;13.46;100.00;100494.78;5123604;28;20031;-55
2022/12/24 00:43:52;;;;;;;48.83;6.73;;;;;;;13.62;100.00;100491.50;5116273;28;20028;-52
2022/12/24 00:46:18;;;;;;;52.67;6.37;;;;;;;13.32;100.00;100496.75;5118684;28;20275;-56
2022/12/24 00:48:43;;;;;;;53.20;6.67;;;;;;;13.32;100.00;100507.50;5118768;28;20293;-54
2022/12/24 00:51:09;;;;;;;54.70;7.28;;;;;;;13.51;100.00;100513.75;5120858;28;20125;-55
2022/12/24 00:53:34;;;;;;;59.50;6.47;;;;;;;13.67;100.00;100515.00;5121259;28;20036;-54
2022/12/24 00:56:00;;;;;;;51.90;8.17;;;;;;;13.79;100.00;100511.59;5120409;28;20340;-55
2022/12/24 00:58:25;;;;;;;52.83;8.27;;;;;;;13.40;100.00;100525.19;5112037;28;20028;-54
2022/12/24 01:00:51;;;;;;;55.47;8.17;;;;;;;13.49;100.00;100531.94;5115172;28;20114;-57
2022/12/24 01:03:16;;;;;;;51.88;7.35;;;;;;;13.59;100.00;100532.25;5109628;28;20032;-55
2022/12/24 01:05:42;;;;;;;47.67;7.03;;;;;;;13.53;100.00;100541.19;5114260;28;20039;-57
2022/12/24 01:08:07;;;;;;;52.35;7.03;;;;;;;13.41;100.00;100534.91;5117385;28;20046;-52
2022/12/24 01:10:33;;;;;;;53.00;6.87;;;;;;;13.64;100.00;100541.53;5114632;28;20040;-52
2022/12/24 01:13:02;;;;;;;73.85;10.52;;;;;;;13.38;100.00;100554.13;5113253;28;20040;-54
2022/12/24 01:15:28;;;;;;;56.17;8.30;;;;;;;13.51;100.00;100558.59;5110169;28;20057;-54
2022/12/24 01:17:54;;;;;;;53.97;6.28;;;;;;;13.19;100.00;100552.22;5114825;28;20267;-54
2022/12/24 01:20:20;;;;;;;63.40;7.67;;;;;;;13.35;100.00;100555.41;5117472;28;20032;-49
2022/12/24 01:22:47;;;;;;;48.15;6.38;;;;;;;13.32;100.00;100556.66;5117673;28;20272;-54
2022/12/24 01:25:13;;;;;;;47.33;7.53;;;;;;;13.33;100.00;100558.28;5118175;28;20119;-51
2022/12/24 01:27:39;;;;;;;61.53;8.40;;;;;;;13.60;100.00;100554.56;5117489;28;20271;-52
2022/12/24 01:30:07;;;;;;;60.67;6.63;;;;;;;13.04;100.00;100570.53;5116673;28;20031;-53
2022/12/24 01:32:33;;;;;;;58.70;6.37;;;;;;;12.98;100.00;100574.06;5117442;28;20109;-55
2022/12/24 01:34:59;;;;;;;48.58;6.22;;;;;;;13.15;100.00;100566.31;5116607;28;20268;-53
2022/12/24 01:37:25;;;;;;;40.40;6.75;;;;;;;13.40;100.00;100574.34;5116581;28;20039;-52
2022/12/24 01:43:22;;;;;;;46.47;6.13;;;;;;;13.27;100.00;100569.94;5118544;28;20032;-55
2022/12/24 01:45:50;;;;;;;65.40;8.40;;;;;;;13.05;100.00;100572.19;5120979;28;20260;-53
2022/12/24 01:48:33;;;;;;;42.70;7.43;;;;;;;13.10;100.00;100580.41;5122293;28;20268;-52
2022/12/24 01:51:28;;;;;;;47.80;7.13;;;;;;;12.99;100.00;100587.28;5116850;28;20281;-54
2022/12/24 01:54:16;;;;;;;59.03;6.23;;;;;;;13.30;100.00;100588.28;5118541;28;20268;-52
2022/12/24 01:56:47;;;;;;;54.03;7.60;;;;;;;13.31;100.00;100605.22;5116465;28;20299;-57
2022/12/24 01:59:17;;;;;;;48.60;7.47;;;;;;;13.20;100.00;100596.81;5118660;28;20324;-55
2022/12/24 02:01:43;;;;;;;40.40;6.00;;;;;;;13.04;100.00;100594.69;5116660;28;20268;-54
2022/12/24 02:04:21;;;;;;;56.60;8.00;;;;;;;12.83;100.00;100609.28;5117360;28;20283;-51
2022/12/24 02:06:46;;;;;;;48.57;6.83;;;;;;;12.90;100.00;100607.38;5115880;28;20042;-54
2022/12/24 02:09:12;;;;;;;32.13;7.00;;;;;;;12.70;100.00;100608.34;5116765;28;20312;-55
2022/12/24 02:11:41;;;;;;;41.03;7.37;;;;;;;12.96;100.00;100611.06;5115865;28;20040;-56
2022/12/24 02:14:07;;;;;;;42.93;5.40;;;;;;;12.90;100.00;100628.84;5111922;28;20031;-55
2022/12/24 02:16:51;;;;;;;41.73;5.10;;;;;;;12.75;100.00;100637.19;5111922;28;20541;-50
2022/12/24 02:19:57;;;;;;;29.70;5.53;;;;;;;12.86;100.00;100633.00;5110847;28;20332;-57
2022/12/24 02:22:51;;;;;;;44.47;7.23;;;;;;;12.88;100.00;100636.28;5076244;28;20299;-54
2022/12/24 02:25:49;;;;;;;53.47;7.00;;;;;;;13.10;100.00;100641.31;5112156;28;20313;-51
2022/12/24 02:28:29;;;;;;;42.23;5.57;;;;;;;12.84;100.00;100630.53;5111283;28;20658;-56
2022/12/24 02:31:04;;;;;;;38.03;6.60;;;;;;;12.96;100.00;100633.38;5111234;28;20275;-55
2022/12/24 02:34:03;;;;;;;62.13;6.67;;;;;;;12.89;100.00;100632.56;5111307;28;20269;-52
2022/12/24 02:36:38;;;;;;;45.30;6.93;;;;;;;13.10;100.00;100636.78;5072745;28;20280;-53
2022/12/24 02:39:10;;;;;;;46.27;5.80;;;;;;;12.92;100.00;100626.78;5115401;28;20337;-54
2022/12/24 02:44:29;;;;;;;41.73;6.00;;;;;;;12.45;100.00;100638.56;5118784;28;20320;-56
2022/12/24 02:46:58;;;;;;;31.87;5.77;;;;;;;12.62;100.00;100638.06;5114750;28;20268;-54
2022/12/24 02:49:24;;;;;;;48.13;6.23;;;;;;;12.88;100.00;100638.97;5120151;28;20283;-54
2022/12/24 02:51:49;;;;;;;42.53;6.10;;;;;;;12.53;100.00;100639.38;5117582;28;20271;-55
2022/12/24 02:54:15;;;;;;;51.17;6.93;;;;;;;12.95;100.00;100641.63;5118407;28;20057;-55
2022/12/24 02:57:09;;;;;;;37.33;5.82;;;;;;;12.68;100.00;100649.81;5115187;28;20039;-56
2022/12/24 03:00:01;;;;;;;55.90;7.57;;;;;;;12.80;100.00;100642.75;5098222;28;20024;-56
2022/12/24 03:02:56;;;;;;;48.17;7.13;;;;;;;12.67;100.00;100657.03;5111737;28;20284;-51
2022/12/24 03:05:52;;;;;;;63.53;8.10;;;;;;;12.72;100.00;100646.50;5114188;28;20667;-54
2022/12/24 03:08:41;;;;;;;68.37;6.97;;;;;;;12.70;100.00;100653.94;5116648;28;20353;-51
2022/12/24 03:11:14;;;;;;;51.03;5.97;;;;;;;12.51;100.00;100647.63;5116009;28;20273;-54
2022/12/24 03:13:41;;;;;;;52.77;7.00;;;;;;;12.60;100.00;100649.03;5120012;28;20320;-53
2022/12/24 03:16:11;;;;;;;43.67;7.60;;;;;;;12.93;100.00;100646.38;5121319;28;20256;-55
2022/12/24 03:18:41;;;;;;;45.73;7.20;;;;;;;12.86;100.00;100649.09;5120172;28;20267;-52
2022/12/24 03:21:12;;;;;;;47.07;7.27;;;;;;;12.65;100.00;100652.94;5115439;28;20275;-55
2022/12/24 03:23:38;;;;;;;62.70;7.83;;;;;;;12.52;100.00;100643.91;5113119;28;20269;-56
2022/12/24 03:26:07;;;;;;;46.25;8.32;;;;;;;12.93;100.00;100652.59;5115657;28;20280;-54
2022/12/24 03:28:34;;;;;;;61.17;8.20;;;;;;;12.68;100.00;100653.31;5113808;28;20035;-55
2022/12/24 03:31:02;;;;;;;59.88;9.38;;;;;;;12.64;100.00;100662.03;5117887;28;20276;-52
2022/12/24 03:33:28;;;;;;;56.97;8.83;;;;;;;12.71;100.00;100660.13;5119766;28;20055;-51
2022/12/24 03:35:54;;;;;;;47.83;8.63;;;;;;;12.89;100.00;100667.44;5113427;28;20268;-54
2022/12/24 03:38:19;;;;;;;66.97;11.53;;;;;;;12.88;100.00;100663.97;5116484;28;20031;-57
2022/12/24 03:40:45;;;;;;;46.47;7.35;;;;;;;13.02;100.00;100670.06;5092570;28;20028;-53
2022/12/24 03:43:10;;;;;;;59.67;9.63;;;;;;;13.07;100.00;100660.53;5113260;28;20079;-54
2022/12/24 03:45:35;;;;;;;65.63;9.07;;;;;;;13.31;100.00;100677.75;5116343;28;20028;-51
2022/12/24 03:48:01;;;;;;;49.30;8.25;;;;;;;13.10;100.00;100673.53;5116244;28;20085;-49
2022/12/24 03:50:27;;;;;;;47.87;8.77;;;;;;;13.27;100.00;100660.41;5113408;28;20058;-57
2022/12/24 03:52:53;;;;;;;46.17;8.47;;;;;;;13.23;100.00;100662.72;5117499;28;20032;-52
2022/12/24 03:55:20;;;;;;;59.90;9.63;;;;;;;13.29;100.00;100669.88;5115711;28;20028;-57
2022/12/24 03:57:45;;;;;;;56.72;6.80;;;;;;;13.70;100.00;100680.34;5112782;28;20277;-53
2022/12/24 04:00:11;;;;;;;37.43;7.63;;;;;;;13.95;100.00;100676.81;5120044;28;20063;-55
2022/12/24 04:02:39;;;;;;;37.50;6.20;;;;;;;13.61;100.00;100672.59;5115257;28;20066;-56
2022/12/24 04:05:07;;;;;;;57.83;8.00;;;;;;;13.73;100.00;100682.59;5114496;28;20292;-56
2022/12/24 04:07:33;;;;;;;47.83;7.07;;;;;;;13.57;100.00;100678.59;5113375;28;20032;-55
2022/12/24 04:09:59;;;;;;;56.45;7.68;;;;;;;13.65;100.00;100685.56;5119554;28;20283;-56
2022/12/24 04:12:24;;;;;;;49.53;9.27;;;;;;;13.50;100.00;100686.72;5099483;28;20040;-53
2022/12/24 04:14:50;;;;;;;45.13;7.38;;;;;;;13.72;100.00;100680.97;5117207;28;20036;-52
2022/12/24 04:17:16;;;;;;;47.30;7.57;;;;;;;13.60;100.00;100681.66;5121120;28;20036;-54
2022/12/24 04:19:41;;;;;;;59.75;7.13;;;;;;;13.65;100.00;100691.75;5121113;28;20028;-55
2022/12/24 04:22:07;;;;;;;40.63;7.47;;;;;;;13.59;100.00;100690.75;5120764;28;20040;-56
2022/12/24 04:24:33;;;;;;;54.22;6.65;;;;;;;13.88;100.00;100693.84;5121517;28;20036;-56
2022/12/24 04:26:59;;;;;;;56.28;7.32;;;;;;;13.91;100.00;100693.41;5121944;28;20043;-54
2022/12/24 04:29:24;;;;;;;56.93;7.43;;;;;;;13.66;100.00;100700.66;5119976;28;20031;-57
2022/12/24 04:31:49;;;;;;;41.17;6.40;;;;;;;13.86;100.00;100698.63;5113303;28;20051;-54
2022/12/24 04:34:15;;;;;;;55.57;7.20;;;;;;;14.12;100.00;100702.09;5118394;28;20032;-56
2022/12/24 04:36:41;;;;;;;49.53;7.30;;;;;;;13.89;100.00;100703.56;5116884;28;20042;-56
2022/12/24 04:39:06;;;;;;;52.97;8.10;;;;;;;13.87;100.00;100708.31;5117715;28;20082;-55
2022/12/24 04:41:32;;;;;;;51.53;7.50;;;;;;;14.18;100.00;100706.56;5118325;28;20532;-56
2022/12/24 04:43:58;;;;;;;50.67;7.20;;;;;;;13.89;100.00;100710.78;5121487;28;20047;-56
2022/12/24 04:46:29;;;;;;;45.58;6.60;;;;;;;13.98;100.00;100711.31;5126493;28;20027;-58
2022/12/24 04:48:55;;;;;;;48.77;8.03;;;;;;;13.96;100.00;100706.19;5123999;28;20036;-58
2022/12/24 04:51:21;;;;;;;48.50;7.82;;;;;;;13.94;100.00;100713.63;5123121;28;20265;-57
2022/12/24 04:53:47;;;;;;;43.72;7.32;;;;;;;14.16;100.00;100722.13;5121116;28;20099;-57
2022/12/24 04:56:18;;;;;;;63.65;9.07;;;;;;;14.01;100.00;100709.03;5121998;28;20044;-55
2022/12/24 04:58:44;;;;;;;54.73;9.93;;;;;;;13.94;100.00;100715.50;5123490;28;20035;-57
2022/12/24 05:01:17;;;;;;;41.55;6.25;;;;;;;14.00;100.00;100711.91;5123014;28;20264;-57
2022/12/24 05:03:42;;;;;;;64.73;8.47;;;;;;;14.18;100.00;100725.41;5123712;28;20028;-57
2022/12/24 05:06:11;;;;;;;62.03;9.23;;;;;;;14.13;100.00;100721.72;5121732;28;20292;-56
2022/12/24 05:08:38;;;;;;;48.23;7.33;;;;;;;14.48;100.00;100719.28;5125166;28;20032;-57
2022/12/24 05:11:04;;;;;;;38.35;7.07;;;;;;;14.03;100.00;100727.59;5125307;28;20336;-58
2022/12/24 05:13:30;;;;;;;57.10;7.40;;;;;;;14.32;100.00;100714.53;5118043;28;20058;-56
2022/12/24 05:15:56;;;;;;;50.40;7.05;;;;;;;14.20;100.00;100709.06;5101773;28;20283;-56
2022/12/24 05:18:22;;;;;;;51.23;8.60;;;;;;;14.14;100.00;100713.44;5122960;28;20028;-55
2022/12/24 05:20:49;;;;;;;55.20;7.97;;;;;;;14.36;100.00;100714.88;5121061;28;20291;-53
2022/12/24 05:28:45;;;;;;;54.53;8.90;;;;;;;14.18;100.00;100729.94;5121151;28;20256;-56
2022/12/24 05:31:11;;;;;;;61.70;8.37;;;;;;;14.05;100.00;100725.53;5105448;28;20298;-56
2022/12/24 05:33:37;;;;;;;60.10;10.07;;;;;;;13.97;100.00;100736.56;5115501;28;20071;-57
2022/12/24 05:36:03;;;;;;;52.00;8.47;;;;;;;14.20;100.00;100734.06;5102530;28;20280;-57
2022/12/24 05:38:29;;;;;;;50.60;6.82;;;;;;;14.27;100.00;100735.84;5117287;28;20032;-57
2022/12/24 05:40:54;;;;;;;42.28;8.45;;;;;;;14.23;100.00;100731.97;5115092;28;20036;-54
2022/12/24 05:43:20;;;;;;;60.75;9.20;;;;;;;14.48;100.00;100734.63;5119096;28;20027;-53
2022/12/24 05:45:45;;;;;;;61.50;8.73;;;;;;;14.42;100.00;100732.84;5125527;28;20095;-56
2022/12/24 05:48:12;;;;;;;44.58;8.13;;;;;;;14.23;100.00;100718.53;5116014;28;20257;-57
2022/12/24 05:50:40;;;;;;;56.40;8.53;;;;;;;13.89;100.00;100734.97;5117624;28;20107;-51
2022/12/24 05:53:06;;;;;;;54.30;8.73;;;;;;;14.19;100.00;100732.44;5123264;28;20273;-53
2022/12/24 05:55:32;;;;;;;;;;;;;;;14.32;100.00;100738.72;5118777;28;20273;-56
2022/12/24 05:57:57;;;;;;;37.57;7.97;;;;;;;14.28;100.00;100743.72;5126978;28;19950;-56
2022/12/24 06:00:23;;;;;;;73.90;10.17;;;;;;;13.81;100.00;100746.00;5118426;28;20020;-53
2022/12/24 06:02:48;;;;;;;56.33;8.88;;;;;;;14.01;100.00;100767.34;5118912;28;20031;-54
2022/12/24 06:05:15;;;;;;;50.78;10.60;;;;;;;14.08;100.00;100757.38;5117184;28;20032;-53
2022/12/24 06:07:40;;;;;;;57.53;9.53;;;;;;;14.10;100.00;100757.97;5125920;28;20062;-57
2022/12/24 06:10:06;;;;;;;49.10;8.10;;;;;;;13.94;100.00;100763.91;5116491;28;20048;-54
2022/12/24 06:12:32;;;;;;;;;;;;;;;14.28;100.00;100751.78;5124334;28;20095;-56
2022/12/24 06:14:57;;;;;;;48.60;8.43;;;;;;;14.11;100.00;100769.53;5122601;28;19942;-54
2022/12/24 06:17:23;;;;;;;46.53;8.73;;;;;;;14.12;100.00;100769.31;5123019;28;20032;-56
2022/12/24 06:19:48;;;;;;;51.03;9.30;;;;;;;14.15;100.00;100778.78;5104577;28;20036;-54
2022/12/24 06:22:14;;;;;;;54.55;9.40;;;;;;;13.99;100.00;100782.88;5121548;28;20031;-50
2022/12/24 06:24:39;;;;;;;59.22;10.30;;;;;;;14.21;100.00;100791.38;5121565;28;20035;-56
2022/12/24 06:27:05;;;;;;;61.80;10.27;;;;;;;14.42;100.00;100783.94;5121576;28;20052;-54
2022/12/24 06:29:30;;;;;;;64.00;11.00;;;;;;;14.00;100.00;100782.66;5119863;28;20028;-56
2022/12/24 06:31:56;;;;;;;57.42;10.57;;;;;;;14.42;100.00;100789.34;5117284;28;20036;-56
2022/12/24 06:34:21;;;;;;;54.27;8.33;;;;;;;14.05;100.00;100796.25;5101443;28;20032;-54
2022/12/24 06:36:47;;;;;;;65.77;10.97;;;;;;;14.09;100.00;100791.28;5118374;28;20035;-53
2022/12/24 06:39:12;;;;;;;56.17;11.40;;;;;;;13.91;100.00;100795.56;5122579;28;20298;-55
2022/12/24 06:41:38;;;;;;;73.13;11.00;;;;;;;14.18;100.00;100789.94;5124386;28;20354;-56
2022/12/24 06:44:03;;;;;;;55.17;10.37;;;;;;;13.76;100.00;100779.75;5124140;28;20043;-57
2022/12/24 06:46:29;;;;;;;60.35;11.43;;;;;;;13.97;100.00;100775.03;5122219;28;20027;-53
2022/12/24 06:48:54;;;;;;;56.73;8.83;;;;;;;13.64;100.00;100773.41;5122611;28;20111;-55
2022/12/24 06:51:20;;;;;;;58.67;8.23;;;;;;;14.00;100.00;100779.13;5118960;28;20028;-56
2022/12/24 06:53:46;;;;;;;44.92;8.02;;;;;;;13.84;100.00;100784.03;5122566;28;20024;-54
2022/12/24 06:56:13;;;;;;;52.63;9.85;;;;;;;13.94;100.00;100791.59;5121211;28;20081;-52
2022/12/24 06:58:40;;;;;;;60.47;8.23;;;;;;;13.90;100.00;100799.28;5121218;28;20047;-51
2022/12/24 07:01:08;;;;;;;45.67;9.48;;;;;;;13.87;100.00;100805.09;5118789;28;20267;-54
2022/12/24 07:03:33;;;;;;;42.07;7.93;;;;;;;14.03;100.00;100802.91;5118715;28;20054;-56
2022/12/24 07:05:59;;;;;;;59.15;7.60;;;;;;;13.79;100.00;100791.91;5118590;28;20294;-58
2022/12/24 07:08:25;;;;;;;46.90;7.63;;;;;;;14.03;100.00;100792.13;5115615;28;20032;-57
2022/12/24 07:10:51;;;;;;;55.35;7.68;;;;;;;13.86;100.00;100797.25;5120298;28;20106;-57
2022/12/24 07:13:17;;;;;;;55.60;9.50;;;;;;;13.77;100.00;100799.38;5120173;28;20039;-56
2022/12/24 07:15:43;;;;;;;52.53;7.47;;;;;;;13.76;100.00;100808.47;5118480;28;20087;-56
2022/12/24 07:18:09;;;;;;;54.90;9.63;;;;;;;13.87;100.00;100818.53;5120134;28;20039;-56
2022/12/24 07:20:35;;;;;;;42.97;6.63;;;;;;;13.83;100.00;100817.31;5121648;28;20020;-56
2022/12/24 07:23:00;;;;;;;40.80;8.30;;;;;;;13.75;100.00;100815.72;5119085;28;20060;-56
2022/12/24 07:25:26;;;;;;;58.70;8.20;;;;;;;13.89;100.00;100829.06;5120147;28;20287;-56
2022/12/24 07:27:51;;;;;;;48.70;8.27;;;;;;;13.77;100.00;100821.72;5118575;28;20039;-58
2022/12/24 07:30:17;;;;;;;43.92;6.35;;;;;;;13.88;100.00;100838.16;5124145;28;20032;-57
2022/12/24 07:32:43;;;;;;;47.20;8.17;;;;;;;13.73;100.00;100839.31;5123679;28;20082;-55
2022/12/24 07:35:08;;;;;;;42.60;6.85;;;;;;;13.61;100.00;100841.03;5119626;28;20276;-56
2022/12/24 07:37:34;;;;;;;41.60;8.82;;;;;;;13.41;100.00;100838.44;5117370;28;20055;-56
2022/12/24 07:40:00;;;;;;;44.88;8.30;;;;;;;13.82;100.00;100853.28;5121066;28;20024;-57
2022/12/24 07:42:25;;;;;;;70.37;9.03;;;;;;;13.50;100.00;100855.97;5120091;28;20046;-54
2022/12/24 07:44:51;;;;;;;51.28;9.05;;;;;;;13.53;100.00;100868.97;5113801;28;20051;-56
2022/12/24 07:47:16;;;;;;;55.55;9.98;;;;;;;13.56;100.00;100865.84;5113385;28;20032;-57
2022/12/24 07:49:42;;;;;;;59.37;8.60;;;;;;;13.48;100.00;100877.66;5113212;28;20067;-56
2022/12/24 07:52:07;;;;;;;70.57;8.40;;;;;;;13.53;100.00;100882.41;5113089;28;20269;-57
2022/12/24 07:54:32;;;;;;;44.43;8.27;;;;;;;13.90;100.00;100889.84;5113314;28;20085;-57
2022/12/24 07:56:58;;;;;;;43.25;7.22;;;;;;;14.02;100.00;100898.88;5117837;28;20035;-57
2022/12/24 07:59:24;;;;;;;54.00;7.73;;;;;;;14.07;100.00;100892.88;5113393;28;20028;-56
2022/12/24 08:01:49;;;;;;;47.20;7.17;;;;;;;13.97;100.00;100896.03;5100270;28;20028;-58
2022/12/24 08:04:15;;;;;;;37.75;7.78;;;;;;;13.70;100.00;100898.84;5117688;28;20272;-55
2022/12/24 08:06:40;;;;;;;51.80;9.97;;;;;;;13.97;100.00;100905.94;5092610;28;20074;-56
2022/12/24 08:09:06;;;;;;;49.60;7.90;;;;;;;14.17;100.00;100917.41;5113273;28;20322;-57
2022/12/24 08:11:31;;;;;;;49.75;8.13;;;;;;;13.93;100.00;100921.66;5116659;28;20085;-54
2022/12/24 08:13:56;;;;;;;56.30;10.07;;;;;;;13.98;100.00;100931.78;5109997;28;20039;-55
2022/12/24 08:16:23;;;;;;;60.03;8.63;;;;;;;14.11;100.00;100936.25;5108515;28;20040;-57
2022/12/24 08:18:48;;;;;;;59.13;8.40;;;;;;;13.86;100.00;100932.47;5114233;28;20276;-53
2022/12/24 08:21:14;;;;;;;38.10;7.88;;;;;;;13.70;100.00;100928.41;5115793;28;20036;-51
2022/12/24 08:23:40;;;;;;;68.15;8.45;;;;;;;13.89;100.00;100932.06;5093644;28;20028;-56
2022/12/24 08:26:08;;;;;;;57.97;8.67;;;;;;;13.99;100.00;100936.13;5116106;28;20040;-53
2022/12/24 08:28:34;;;;;;;42.37;7.10;;;;;;;13.72;100.00;100941.66;5111570;28;20070;-53
2022/12/24 08:30:59;;;;;;;48.65;8.15;;;;;;;13.71;100.00;100940.00;5099784;28;20284;-55
2022/12/24 08:33:25;;;;;;;51.85;9.23;;;;;;;13.88;100.00;100943.00;5112066;28;20040;-52
2022/12/24 08:35:53;;;;;;;56.03;10.30;;;;;;;13.68;100.00;100948.50;5121798;28;20043;-53
2022/12/24 08:38:19;;;;;;;53.70;8.93;;;;;;;13.91;100.00;100945.25;5120100;28;20034;-51
2022/12/24 08:40:48;;;;;;;46.42;8.43;;;;;;;13.94;100.00;100952.91;5116497;28;20280;-56
2022/12/24 08:43:16;;;;;;;59.87;8.20;;;;;;;13.80;100.00;100954.81;5119869;28;20032;-57
2022/12/24 08:45:42;;;;;;;44.47;9.03;;;;;;;13.71;100.00;100962.31;5101442;28;20303;-51
2022/12/24 08:48:09;;;;;;;47.38;9.27;;;;;;;14.12;100.00;100962.94;5117786;28;20328;-56
2022/12/24 08:50:38;;;;;;;49.30;9.43;;;;;;;14.05;100.00;100972.91;5120367;28;20027;-54
2022/12/24 08:53:03;;;;;;;46.63;8.63;;;;;;;14.20;100.00;100970.75;5120673;28;20284;-54
2022/12/24 08:55:29;;;;;;;45.30;10.48;;;;;;;14.01;100.00;100974.38;5097964;28;20264;-51
2022/12/24 08:57:54;;;;;;;43.73;8.50;;;;;;;14.42;100.00;100977.66;5121629;28;20044;-53
2022/12/24 09:00:20;;;;;;;46.30;10.63;;;;;;;14.17;100.00;100976.56;5119640;28;20261;-52
2022/12/24 09:02:46;;;;;;;57.67;10.88;;;;;;;14.17;100.00;100970.34;5119886;28;20039;-55
2022/12/24 09:05:11;;;;;;;59.53;9.63;;;;;;;14.15;100.00;100992.09;5123988;28;20066;-54
2022/12/24 09:07:37;;;;;;;37.58;7.78;;;;;;;14.37;100.00;100996.31;5085788;28;20036;-54
2022/12/24 09:10:03;;;;;;;51.73;9.17;;;;;;;14.30;100.00;100982.88;5114351;28;20032;-54
2022/12/24 09:12:28;;;;;;;43.63;8.40;;;;;;;14.61;100.00;101000.09;5115375;28;20280;-57
2022/12/24 09:14:54;;;;;;;50.97;9.25;;;;;;;14.51;100.00;100999.72;5118015;28;20074;-52
2022/12/24 09:17:20;;;;;;;37.05;8.10;;;;;;;14.80;100.00;101002.88;5116732;28;20028;-55
2022/12/24 09:19:46;;;;;;;45.85;7.10;;;;;;;14.53;100.00;101014.63;5117447;28;20032;-52
2022/12/24 09:22:11;;;;;;;48.87;7.87;;;;;;;14.90;100.00;101014.81;5126747;28;20043;-56
2022/12/24 09:24:37;;;;;;;47.97;9.35;;;;;;;14.65;100.00;101016.59;5114916;28;20081;-56
2022/12/24 09:27:03;;;;;;;63.90;8.93;;;;;;;14.43;100.00;101019.66;5117073;28;20040;-55
2022/12/24 09:29:30;;;;;;;47.22;9.02;;;;;;;14.59;100.00;101021.81;5123762;28;20036;-53
2022/12/24 09:31:56;;;;;;;49.47;8.70;;;;;;;14.88;100.00;101026.81;5119581;28;20044;-55
2022/12/24 09:34:22;;;;;;;59.47;8.05;;;;;;;14.64;100.00;101037.31;5119074;28;20325;-55
2022/12/24 09:36:48;;;;;;;41.03;8.60;;;;;;;14.54;100.00;101037.00;5118208;28;20035;-54
2022/12/24 09:39:13;;;;;;;47.93;9.10;;;;;;;14.66;100.00;101045.19;5122157;28;20028;-50
2022/12/24 09:41:48;;;;;;;49.60;10.07;;;;;;;14.48;100.00;101042.19;5119489;28;20298;-57
2022/12/24 09:44:24;;;;;;;49.53;10.30;;;;;;;14.42;100.00;101048.44;5117152;28;20256;-55
2022/12/24 09:46:52;;;;;;;44.17;8.93;;;;;;;14.81;100.00;101055.69;5117128;28;20290;-53
2022/12/24 09:49:28;;;;;;;44.87;9.30;;;;;;;14.80;100.00;101056.72;5117017;28;20028;-53
2022/12/24 09:52:05;;;;;;;44.55;8.50;;;;;;;15.26;100.00;101058.22;5117284;28;20277;-52
2022/12/24 09:54:36;;;;;;;47.85;7.95;;;;;;;15.49;100.00;101057.56;5121036;28;20028;-58
2022/12/24 09:57:12;;;;;;;49.30;9.67;;;;;;;15.52;100.00;101050.06;5120698;28;20106;-54
2022/12/24 09:59:44;;;;;;;51.25;9.65;;;;;;;15.80;100.00;101046.88;5116785;28;20314;-58
2022/12/24 10:02:15;;;;;;;47.47;8.93;;;;;;;15.74;100.00;101072.03;5119502;28;20035;-57
2022/12/24 10:04:42;;;;;;;47.97;8.33;;;;;;;15.68;100.00;101070.22;5118723;28;20291;-56
2022/12/24 10:08:03;;;;;;;56.53;10.00;;;;;;;15.39;100.00;101089.59;5121553;28;20283;-54
2022/12/24 10:11:04;;;;;;;48.87;8.13;;;;;;;15.04;100.00;101066.69;5032512;28;20291;-56
2022/12/24 10:13:51;;;;;;;38.03;8.30;;;;;;;15.40;100.00;101079.63;5106643;28;20280;-58
2022/12/24 10:16:38;;;;;;;47.57;8.90;;;;;;;15.46;100.00;101087.66;5118841;28;20260;-54
2022/12/24 10:19:31;;;;;;;51.57;9.10;;;;;;;16.53;100.00;101074.00;5116204;28;20264;-56
2022/12/24 10:22:18;;;;;;;41.97;7.83;;;;;;;17.33;100.00;101080.03;5117972;28;20272;-56
2022/12/24 10:25:33;;;;;;;47.60;9.00;;;;;;;17.56;100.00;101082.94;5102487;28;20028;-52
2022/12/24 10:28:04;;;;;;;46.97;7.90;;;;;;;17.33;100.00;101080.03;5098695;28;20032;-58
2022/12/24 10:30:30;;;;;;;39.50;7.50;;;;;;;18.06;100.00;101081.63;5118476;28;20037;-57
2022/12/24 10:32:56;;;;;;;48.75;8.70;;;;;;;19.46;100.00;101071.25;5115789;28;20043;-55
2022/12/24 10:35:31;;;;;;;34.20;6.60;;;;;;;19.37;100.00;101093.63;5117419;28;20040;-57
2022/12/24 10:37:57;;;;;;;32.73;6.07;;;;;;;18.62;100.00;101078.31;5115316;28;20032;-56
2022/12/24 10:40:30;;;;;;;35.40;6.30;;;;;;;18.96;100.00;101070.22;5122673;28;20028;-58
2022/12/24 10:42:56;;;;;;;39.50;6.77;;;;;;;19.06;100.00;101078.53;5119300;28;20118;-54
2022/12/24 10:45:25;;;;;;;43.03;6.72;;;;;;;19.06;100.00;101067.69;5116295;28;20024;-58
2022/12/24 10:48:00;;;;;;;30.67;6.00;;;;;;;18.43;100.00;101070.38;5114182;28;20040;-56
2022/12/24 10:50:32;;;;;;;32.93;6.93;;;;;;;17.77;100.00;101070.72;5115585;28;20058;-58
2022/12/24 10:53:10;;;;;;;36.93;6.43;;;;;;;17.70;100.00;101078.94;5120062;28;20046;-56
2022/12/24 10:55:36;;;;;;;47.87;6.87;;;;;;;16.70;100.00;101082.25;5115621;28;20020;-54
2022/12/24 10:58:05;;;;;;;33.13;6.80;;;;;;;17.58;100.00;101072.72;5124641;28;20038;-58
2022/12/24 11:00:33;;;;;;;38.53;6.10;;;;;;;17.63;100.00;101087.19;5117435;28;20031;-52
2022/12/24 11:03:10;;;;;;;35.40;6.43;;;;;;;17.25;100.00;101099.28;5117710;28;20036;-56
2022/12/24 11:05:37;;;;;;;37.47;5.97;;;;;;;16.91;100.00;101090.88;5119627;28;20032;-53
2022/12/24 11:08:25;;;;;;;36.13;6.87;;;;;;;16.90;100.00;101081.13;5119663;28;20112;-55
2022/12/24 11:10:55;;;;;;;30.37;5.87;;;;;;;17.46;100.00;101078.97;5113485;28;20039;-56
2022/12/24 11:13:43;;;;;;;50.13;7.50;;;;;;;17.98;100.00;101095.47;5115925;28;20036;-57
2022/12/24 11:16:15;;;;;;;35.80;7.00;;;;;;;17.34;100.00;101088.94;5117184;28;20028;-57
2022/12/24 11:18:48;;;;;;;32.80;5.90;;;;;;;16.96;100.00;101087.50;5121035;28;20057;-57
2022/12/24 11:21:27;;;;;;;50.20;7.73;;;;;;;16.57;100.00;101083.28;5095859;28;20035;-54
2022/12/24 11:23:59;;;;;;;31.57;6.60;;;;;;;16.37;100.00;101080.81;5115121;28;20027;-55
2022/12/24 11:26:27;;;;;;;33.57;6.17;;;;;;;16.32;100.00;101086.94;5114815;28;20087;-51
2022/12/24 11:29:13;;;;;;;38.30;6.20;;;;;;;15.88;100.00;101087.03;5117194;28;20036;-53